Time;durP1;ratioP1;P1;durP2;ratioP2;P2;SDS_P1;SDS_P2;PMS_P1;PMS_P2;Temp;Humidity;BMP_temperature;BMP_pressure;BME280_temperature;BME280_humidity;BME280_pressure;Samples;Min_cycle;Max_cycle;Signal;HPM_P1;HPM_P2
2022/11/24 00:00:05;;;;;;;;;;;;;;;4.82;100.00;100043.66;2088493;28;19991;-70
2022/11/24 00:01:10;;;;;;;;;;;;;;;4.78;100.00;100044.59;2087903;28;34225;-70
2022/11/24 00:02:14;;;;;;;;;;;;;;;4.79;100.00;100043.69;2089012;28;19925;-70
2022/11/24 00:03:17;;;;;;;;;;;;;;;4.77;100.00;100041.09;2088389;28;19917;-70
2022/11/24 00:04:19;;;;;;;;;;;;;;;4.81;100.00;100047.22;2088462;28;19921;-70
2022/11/24 00:05:22;;;;;;;;;;;;;;;4.79;100.00;100051.63;2088861;28;19925;-70
2022/11/24 00:06:25;;;;;;;;;;;;;;;4.76;100.00;100049.06;2089272;28;19925;-72
2022/11/24 00:07:26;;;;;;;;;;;;;;;4.68;100.00;100041.19;2088704;28;20091;-69
2022/11/24 00:08:28;;;;;;;;;;;;;;;4.68;100.00;100048.25;2088820;28;19924;-69
2022/11/24 00:09:30;;;;;;;;;;;;;;;4.67;100.00;100046.53;2088676;28;19991;-70
2022/11/24 00:10:32;;;;;;;;;;;;;;;4.65;100.00;100040.34;2089052;28;19925;-71
2022/11/24 00:11:35;;;;;;;;;;;;;;;4.63;100.00;100042.13;2088535;28;19917;-70
2022/11/24 00:12:36;;;;;;;;;;;;;;;4.61;100.00;100046.59;2088629;28;20762;-70
2022/11/24 00:13:39;;;;;;;;;;;;;;;4.54;100.00;100041.38;2088699;28;19999;-70
2022/11/24 00:14:40;;;;;;;;;;;;;;;4.56;100.00;100046.66;2088937;28;20918;-72
2022/11/24 00:15:42;;;;;;;;;;;;;;;4.50;100.00;100047.59;2088680;28;19995;-70
2022/11/24 00:16:46;;;;;;;;;;;;;;;4.44;100.00;100046.81;2088756;28;19929;-70
2022/11/24 00:17:47;;;;;;;;;;;;;;;4.40;100.00;100052.16;2088172;28;21614;-70
2022/11/24 00:18:52;;;;;;;;;;;;;;;4.37;100.00;100053.97;2088197;28;20007;-70
2022/11/24 00:19:54;;;;;;;;;;;;;;;4.38;100.00;100047.78;2087939;28;19932;-70
2022/11/24 00:20:55;;;;;;;;;;;;;;;4.34;100.00;100054.88;2088871;28;19917;-71
2022/11/24 00:21:57;;;;;;;;;;;;;;;4.31;100.00;100051.41;2088492;28;19917;-71
2022/11/24 00:23:00;;;;;;;;;;;;;;;4.30;100.00;100052.28;2088912;28;20002;-70
2022/11/24 00:24:02;;;;;;;;;;;;;;;4.25;100.00;100046.16;2090034;28;19924;-68
2022/11/24 00:25:04;;;;;;;;;;;;;;;4.29;100.00;100046.09;2089697;28;19927;-71
2022/11/24 00:26:15;;;;;;;;;;;;;;;4.25;100.00;100043.50;2089964;28;20825;-71
2022/11/24 00:27:17;;;;;;;;;;;;;;;4.18;100.00;100048.88;2090102;28;19963;-71
2022/11/24 00:28:18;;;;;;;;;;;;;;;4.21;100.00;100055.91;2089921;28;20764;-71
2022/11/24 00:29:20;;;;;;;;;;;;;;;4.18;100.00;100051.53;2090619;28;19995;-72
2022/11/24 00:30:22;;;;;;;;;;;;;;;4.19;100.00;100053.28;2090017;28;19913;-71
2022/11/24 00:31:28;;;;;;;;;;;;;;;4.17;100.00;100056.84;2089962;28;19921;-72
2022/11/24 00:32:30;;;;;;;;;;;;;;;4.15;100.00;100051.56;2090019;28;20863;-71
2022/11/24 00:33:32;;;;;;;;;;;;;;;4.17;100.00;100055.06;2089485;28;20978;-70
2022/11/24 00:34:36;;;;;;;;;;;;;;;4.13;100.00;100053.34;2089690;28;20802;-70
2022/11/24 00:35:37;;;;;;;;;;;;;;;4.13;100.00;100057.78;2089962;28;20735;-70
2022/11/24 00:36:40;;;;;;;;;;;;;;;4.16;100.00;100053.31;2089678;28;20806;-70
2022/11/24 00:37:42;;;;;;;;;;;;;;;4.13;100.00;100055.13;2090040;28;19991;-72
2022/11/24 00:38:46;;;;;;;;;;;;;;;4.13;100.00;100056.00;2090237;28;19968;-69
2022/11/24 00:39:48;;;;;;;;;;;;;;;4.12;100.00;100059.53;2089683;28;20779;-71
2022/11/24 00:40:50;;;;;;;;;;;;;;;4.09;100.00;100056.94;2089876;28;20771;-71
2022/11/24 00:41:52;;;;;;;;;;;;;;;4.07;100.00;100057.81;2089046;28;19917;-71
2022/11/24 00:42:54;;;;;;;;;;;;;;;4.07;100.00;100052.53;2088853;28;19921;-71
2022/11/24 00:43:56;;;;;;;;;;;;;;;4.06;100.00;100059.59;2090045;28;19967;-70
2022/11/24 00:44:58;;;;;;;;;;;;;;;4.04;100.00;100069.34;2089358;28;21940;-71
2022/11/24 00:46:00;;;;;;;;;;;;;;;4.00;100.00;100068.50;2089554;28;19929;-71
2022/11/24 00:47:02;;;;;;;;;;;;;;;3.97;100.00;100065.00;2089751;28;19920;-71
2022/11/24 00:48:06;;;;;;;;;;;;;;;3.99;100.00;100073.81;2089949;28;19917;-71
2022/11/24 00:49:08;;;;;;;;;;;;;;;3.94;100.00;100067.69;2089273;28;19925;-71
2022/11/24 00:50:12;;;;;;;;;;;;;;;3.94;100.00;100070.31;2089699;28;19921;-71
2022/11/24 00:51:16;;;;;;;;;;;;;;;3.95;100.00;100075.59;2089679;28;22097;-71
2022/11/24 00:52:17;;;;;;;;;;;;;;;3.96;100.00;100065.88;2089924;28;19925;-70
2022/11/24 00:53:19;;;;;;;;;;;;;;;3.98;100.00;100066.75;2089373;28;21738;-70
2022/11/24 00:54:21;;;;;;;;;;;;;;;4.00;100.00;100064.94;2089575;28;20036;-71
2022/11/24 00:55:22;;;;;;;;;;;;;;;4.05;100.00;100068.44;2089044;28;20022;-71
2022/11/24 00:56:26;;;;;;;;;;;;;;;4.07;100.00;100079.88;2089558;28;20777;-71
2022/11/24 00:57:27;;;;;;;;;;;;;;;4.10;100.00;100069.28;2089569;28;19921;-71
2022/11/24 00:58:30;;;;;;;;;;;;;;;4.17;100.00;100073.59;2090174;28;19990;-70
2022/11/24 00:59:34;;;;;;;;;;;;;;;4.17;100.00;100073.59;2089302;28;19913;-71
2022/11/24 01:00:36;;;;;;;;;;;;;;;4.23;100.00;100067.34;2089986;28;20127;-71
2022/11/24 01:01:37;;;;;;;;;;;;;;;4.25;100.00;100073.50;2089766;28;19921;-72
2022/11/24 01:02:39;;;;;;;;;;;;;;;4.30;100.00;100071.69;2089382;28;20047;-71
2022/11/24 01:03:42;;;;;;;;;;;;;;;4.34;100.00;100073.44;2088909;28;19925;-70
2022/11/24 01:04:43;;;;;;;;;;;;;;;4.34;100.00;100072.53;2089127;28;19956;-71
2022/11/24 01:05:45;;;;;;;;;;;;;;;4.36;100.00;100076.94;2089577;28;19928;-70
2022/11/24 01:06:47;;;;;;;;;;;;;;;4.38;100.00;100075.16;2089881;28;19917;-68
2022/11/24 01:07:48;;;;;;;;;;;;;;;4.47;100.00;100075.91;2089647;28;19917;-70
2022/11/24 01:08:51;;;;;;;;;;;;;;;4.50;100.00;100074.09;2090080;28;19921;-70
2022/11/24 01:09:53;;;;;;;;;;;;;;;4.53;100.00;100074.06;2089545;28;20786;-70
2022/11/24 01:11:24;;;;;;;;;;;;;;;4.56;100.00;100079.34;2089581;28;20683;-72
2022/11/24 01:12:27;;;;;;;;;;;;;;;4.61;100.00;100081.94;2089256;28;19932;-70
2022/11/24 01:13:31;;;;;;;;;;;;;;;4.63;100.00;100071.31;2090188;28;19925;-70
2022/11/24 01:14:32;;;;;;;;;;;;;;;4.66;100.00;100084.53;2089364;28;19988;-70
2022/11/24 01:15:35;;;;;;;;;;;;;;;4.68;100.00;100077.44;2088996;28;19928;-71
2022/11/24 01:16:37;;;;;;;;;;;;;;;4.67;100.00;100081.00;2089000;28;19921;-72
2022/11/24 01:17:39;;;;;;;;;;;;;;;4.69;100.00;100087.16;2089707;28;20002;-70
2022/11/24 01:18:41;;;;;;;;;;;;;;;4.69;100.00;100081.84;2089014;28;20986;-71
2022/11/24 01:19:45;;;;;;;;;;;;;;;4.71;100.00;100083.56;2089503;28;19917;-70
2022/11/24 01:20:47;;;;;;;;;;;;;;;4.70;100.00;100081.84;2089500;28;19924;-71
2022/11/24 01:21:49;;;;;;;;;;;;;;;4.70;100.00;100089.78;2089828;28;19929;-72
2022/11/24 01:22:51;;;;;;;;;;;;;;;4.69;100.00;100084.50;2089667;28;20876;-72
2022/11/24 01:23:52;;;;;;;;;;;;;;;4.66;100.00;100089.84;2089835;28;19949;-71
2022/11/24 01:24:54;;;;;;;;;;;;;;;4.62;100.00;100085.47;2088782;28;19921;-69
2022/11/24 01:25:56;;;;;;;;;;;;;;;4.58;100.00;100090.81;2089354;28;19921;-72
2022/11/24 01:26:57;;;;;;;;;;;;;;;4.57;100.00;100097.00;2089616;28;19952;-71
2022/11/24 01:27:59;;;;;;;;;;;;;;;4.52;100.00;100093.53;2089535;28;20062;-71
2022/11/24 01:29:00;;;;;;;;;;;;;;;4.54;100.00;100086.44;2089608;28;19917;-71
2022/11/24 01:30:04;;;;;;;;;;;;;;;4.47;100.00;100090.06;2089483;28;20036;-70
2022/11/24 01:31:07;;;;;;;;;;;;;;;4.45;100.00;100093.63;2089587;28;20730;-70
2022/11/24 01:32:11;;;;;;;;;;;;;;;4.43;100.00;100088.31;2089494;28;19924;-72
2022/11/24 01:33:12;;;;;;;;;;;;;;;4.38;100.00;100095.47;2089203;28;19994;-70
2022/11/24 01:34:14;;;;;;;;;;;;;;;4.40;100.00;100091.91;2089084;28;19986;-70
2022/11/24 01:35:16;;;;;;;;;;;;;;;4.34;100.00;100094.63;2089568;28;19932;-70
2022/11/24 01:36:18;;;;;;;;;;;;;;;4.34;100.00;100093.75;2090192;28;20767;-71
2022/11/24 01:37:19;;;;;;;;;;;;;;;4.32;100.00;100098.19;2089218;28;20775;-70
2022/11/24 01:38:21;;;;;;;;;;;;;;;4.27;100.00;100087.66;2089791;28;19920;-70
2022/11/24 01:39:23;;;;;;;;;;;;;;;4.25;100.00;100094.72;2089294;28;19964;-72
2022/11/24 01:40:24;;;;;;;;;;;;;;;4.20;100.00;100089.47;2088457;28;23474;-70
2022/11/24 01:41:27;;;;;;;;;;;;;;;4.23;100.00;100087.69;2088971;28;19994;-71
2022/11/24 01:42:42;;;;;;;;;;;;;;;4.18;100.00;100087.72;2089628;28;19940;-71
2022/11/24 01:43:45;;;;;;;;;;;;;;;4.18;100.00;100093.91;2089331;28;19921;-71
2022/11/24 01:44:50;;;;;;;;;;;;;;;4.15;100.00;100091.28;2089046;28;19917;-71
2022/11/24 01:45:53;;;;;;;;;;;;;;;4.20;100.00;100097.44;2088789;28;19920;-71
2022/11/24 01:47:16;;;;;;;;;;;;;;;4.12;100.00;100099.25;2089476;28;19917;-71
2022/11/24 01:48:35;;;;;;;;;;;;;;;4.07;100.00;100098.44;2089304;28;19929;-72
2022/11/24 01:49:50;;;;;;;;;;;;;;;4.02;100.00;100097.63;2088091;28;21974;-71
2022/11/24 01:50:59;;;;;;;;;;;;;;;3.99;100.00;100092.34;2089928;28;19968;-72
2022/11/24 01:52:08;;;;;;;;;;;;;;;3.97;100.00;100094.13;2089681;28;20861;-70
2022/11/24 01:53:12;;;;;;;;;;;;;;;3.94;100.00;100100.31;2088774;28;20062;-72
2022/11/24 01:54:20;;;;;;;;;;;;;;;3.90;100.00;100100.38;2088669;28;19913;-71
2022/11/24 01:55:26;;;;;;;;;;;;;;;3.89;100.00;100093.31;2089669;28;19917;-72
2022/11/24 01:56:29;;;;;;;;;;;;;;;3.89;100.00;100090.66;2089422;28;21203;-71
2022/11/24 01:57:41;;;;;;;;;;;;;;;3.85;100.00;100103.06;2089432;28;20637;-71
2022/11/24 01:58:45;;;;;;;;;;;;;;;3.86;100.00;100107.47;2089714;28;19917;-71
2022/11/24 01:59:51;;;;;;;;;;;;;;;3.82;100.00;100105.72;2089617;28;20745;-73
2022/11/24 02:00:59;;;;;;;;;;;;;;;3.77;100.00;100108.44;2089594;28;19917;-71
2022/11/24 02:02:01;;;;;;;;;;;;;;;3.68;100.00;100108.50;2089412;28;21016;-68
2022/11/24 02:03:03;;;;;;;;;;;;;;;3.68;100.00;100108.50;2089435;28;19962;-72
2022/11/24 02:04:10;;;;;;;;;;;;;;;3.68;100.00;100113.81;2089250;28;20856;-72
2022/11/24 02:05:22;;;;;;;;;;;;;;;3.66;100.00;100109.41;2089175;28;19917;-72
2022/11/24 02:06:30;;;;;;;;;;;;;;;3.66;100.00;100115.59;2089198;28;20002;-72
2022/11/24 02:07:35;;;;;;;;;;;;;;;3.59;100.00;100116.53;2089743;28;20694;-72
2022/11/24 02:08:45;;;;;;;;;;;;;;;3.56;100.00;100119.19;2089222;28;19917;-71
2022/11/24 02:09:59;;;;;;;;;;;;;;;3.51;100.00;100124.50;2089506;28;19920;-71
2022/11/24 02:11:03;;;;;;;;;;;;;;;3.54;100.00;100120.97;2088882;28;20010;-70
2022/11/24 02:12:05;;;;;;;;;;;;;;;3.52;100.00;100128.06;2089260;28;20798;-71
2022/11/24 02:13:07;;;;;;;;;;;;;;;3.54;100.00;100131.56;2089252;28;19925;-72
2022/11/24 02:14:12;;;;;;;;;;;;;;;3.52;100.00;100133.34;2089267;28;20871;-71
2022/11/24 02:15:15;;;;;;;;;;;;;;;3.52;100.00;100134.22;2089069;28;19921;-71
2022/11/24 02:16:17;;;;;;;;;;;;;;;3.52;100.00;100141.28;2089408;28;19963;-70
2022/11/24 02:17:19;;;;;;;;;;;;;;;3.52;100.00;100128.06;2089128;28;20881;-71
2022/11/24 02:18:21;;;;;;;;;;;;;;;3.53;100.00;100135.09;2089309;28;19921;-71
2022/11/24 02:19:40;;;;;;;;;;;;;;;3.51;100.00;100136.88;2088402;28;19913;-70
2022/11/24 02:20:42;;;;;;;;;;;;;;;3.52;100.00;100133.34;2089217;28;20814;-70
2022/11/24 02:21:43;;;;;;;;;;;;;;;3.52;100.00;100139.50;2089454;28;20895;-70
2022/11/24 02:22:51;;;;;;;;;;;;;;;3.48;100.00;100144.81;2089758;28;19925;-71
2022/11/24 02:24:02;;;;;;;;;;;;;;;3.52;100.00;100141.28;2089256;28;19929;-71
2022/11/24 02:25:22;;;;;;;;;;;;;;;3.50;100.00;100140.41;2089206;28;19928;-72
2022/11/24 02:26:28;;;;;;;;;;;;;;;3.56;100.00;100140.38;2089535;28;19967;-71
2022/11/24 02:27:29;;;;;;;;;;;;;;;3.54;100.00;100145.66;2089018;28;19924;-72
2022/11/24 02:28:32;;;;;;;;;;;;;;;3.49;100.00;100149.25;2089268;28;20699;-71
2022/11/24 02:29:33;;;;;;;;;;;;;;;3.49;100.00;100143.94;2089274;28;19921;-70
2022/11/24 02:30:35;;;;;;;;;;;;;;;3.49;100.00;100150.09;2089304;28;19921;-70
2022/11/24 02:31:40;;;;;;;;;;;;;;;3.46;100.00;100155.41;2089225;28;19924;-70
2022/11/24 02:32:42;;;;;;;;;;;;;;;3.48;100.00;100152.75;2089509;28;19921;-70
2022/11/24 02:33:44;;;;;;;;;;;;;;;3.45;100.00;100153.69;2089111;28;20015;-71
2022/11/24 02:34:46;;;;;;;;;;;;;;;3.42;100.00;100149.25;2089102;28;19960;-72
2022/11/24 02:35:47;;;;;;;;;;;;;;;3.39;100.00;100159.88;2089152;28;20010;-72
2022/11/24 02:36:49;;;;;;;;;;;;;;;3.34;100.00;100161.69;2089137;28;19925;-71
2022/11/24 02:37:51;;;;;;;;;;;;;;;3.30;100.00;100165.22;2089313;28;20782;-72
2022/11/24 02:38:52;;;;;;;;;;;;;;;3.30;100.00;100159.03;2089398;28;20770;-71
2022/11/24 02:39:54;;;;;;;;;;;;;;;3.29;100.00;100155.53;2088655;28;19990;-71
2022/11/24 02:40:59;;;;;;;;;;;;;;;3.34;100.00;100161.69;2089506;28;19924;-71
2022/11/24 02:42:07;;;;;;;;;;;;;;;3.31;100.00;100166.97;2088654;28;20015;-71
2022/11/24 02:43:12;;;;;;;;;;;;;;;3.30;100.00;100170.50;2088960;28;20780;-71
2022/11/24 02:44:19;;;;;;;;;;;;;;;3.29;100.00;100165.25;2089217;28;19968;-71
2022/11/24 02:45:22;;;;;;;;;;;;;;;3.21;100.00;100175.84;2088497;28;20806;-71
2022/11/24 02:46:26;;;;;;;;;;;;;;;3.25;100.00;100178.47;2089055;28;19925;-71
2022/11/24 02:47:27;;;;;;;;;;;;;;;3.19;100.00;100170.56;2089010;28;19913;-70
2022/11/24 02:48:29;;;;;;;;;;;;;;;3.22;100.00;100174.97;2088794;28;19921;-73
2022/11/24 02:49:33;;;;;;;;;;;;;;;3.24;100.00;100176.72;2088115;28;19921;-72
2022/11/24 02:50:35;;;;;;;;;;;;;;;3.25;100.00;100167.03;2088196;28;20822;-71
2022/11/24 02:51:37;;;;;;;;;;;;;;;3.25;100.00;100170.53;2088010;28;19921;-72
2022/11/24 02:52:38;;;;;;;;;;;;;;;3.25;100.00;100169.69;2089125;28;19930;-71
2022/11/24 02:53:40;;;;;;;;;;;;;;;3.20;100.00;100174.97;2088775;28;19924;-70
2022/11/24 02:54:42;;;;;;;;;;;;;;;3.20;100.00;100167.03;2089300;28;19920;-71
2022/11/24 02:55:44;;;;;;;;;;;;;;;3.19;100.00;100167.03;2088790;28;20725;-71
2022/11/24 02:56:46;;;;;;;;;;;;;;;3.20;100.00;100172.34;2089063;28;19925;-71
2022/11/24 02:57:47;;;;;;;;;;;;;;;3.19;100.00;100172.34;2088928;28;20852;-71
2022/11/24 02:58:51;;;;;;;;;;;;;;;3.14;100.00;100177.66;2088973;28;19995;-70
2022/11/24 02:59:53;;;;;;;;;;;;;;;3.11;100.00;100179.44;2089060;28;20011;-72
2022/11/24 03:00:56;;;;;;;;;;;;;;;3.10;100.00;100177.69;2088471;28;19928;-70
2022/11/24 03:01:57;;;;;;;;;;;;;;;3.12;100.00;100175.91;2088352;28;20011;-71
2022/11/24 03:02:59;;;;;;;;;;;;;;;3.13;100.00;100173.25;2088953;28;20080;-70
2022/11/24 03:04:01;;;;;;;;;;;;;;;3.09;100.00;100175.91;2089145;28;20774;-69
2022/11/24 03:05:03;;;;;;;;;;;;;;;3.09;100.00;100173.25;2089336;28;19928;-70
2022/11/24 03:06:05;;;;;;;;;;;;;;;3.11;100.00;100169.75;2088601;28;20706;-71
2022/11/24 03:07:07;;;;;;;;;;;;;;;3.14;100.00;100168.84;2089213;28;20718;-70
2022/11/24 03:08:08;;;;;;;;;;;;;;;3.14;100.00;100174.13;2088625;28;20777;-70
2022/11/24 03:09:10;;;;;;;;;;;;;;;3.11;100.00;100174.16;2088789;28;20872;-70
2022/11/24 03:10:12;;;;;;;;;;;;;;;3.11;100.00;100182.09;2088871;28;20731;-71
2022/11/24 03:11:16;;;;;;;;;;;;;;;3.10;100.00;100182.97;2088827;28;19929;-71
2022/11/24 03:12:17;;;;;;;;;;;;;;;3.10;100.00;100177.69;2088802;28;20052;-71
2022/11/24 03:13:19;;;;;;;;;;;;;;;3.12;100.00;100175.91;2088959;28;20749;-71
2022/11/24 03:14:21;;;;;;;;;;;;;;;3.16;100.00;100180.28;2089056;28;19976;-71
2022/11/24 03:15:23;;;;;;;;;;;;;;;3.18;100.00;100189.13;2088502;28;20737;-71
2022/11/24 03:16:24;;;;;;;;;;;;;;;3.17;100.00;100189.97;2079773;28;20047;-71
2022/11/24 03:17:29;;;;;;;;;;;;;;;3.19;100.00;100188.22;2089100;28;20846;-72
2022/11/24 03:18:30;;;;;;;;;;;;;;;3.20;100.00;100193.50;2088791;28;19994;-70
2022/11/24 03:19:32;;;;;;;;;;;;;;;3.22;100.00;100194.34;2089049;28;19921;-71
2022/11/24 03:20:34;;;;;;;;;;;;;;;3.23;100.00;100190.84;2088844;28;19921;-71
2022/11/24 03:21:38;;;;;;;;;;;;;;;3.22;100.00;100201.44;2088999;28;19917;-70
2022/11/24 03:22:40;;;;;;;;;;;;;;;3.24;100.00;100197.00;2088730;28;19921;-70
2022/11/24 03:23:42;;;;;;;;;;;;;;;3.23;100.00;100198.78;2089148;28;19921;-71
2022/11/24 03:24:43;;;;;;;;;;;;;;;3.22;100.00;100193.50;2088971;28;19994;-71
2022/11/24 03:25:45;;;;;;;;;;;;;;;3.26;100.00;100192.56;2088724;28;19921;-71
2022/11/24 03:26:47;;;;;;;;;;;;;;;3.25;100.00;100196.13;2088669;28;20993;-71
2022/11/24 03:27:48;;;;;;;;;;;;;;;3.27;100.00;100198.75;2088831;28;20784;-71
2022/11/24 03:28:55;;;;;;;;;;;;;;;3.25;100.00;100196.13;2089261;28;20043;-71
2022/11/24 03:29:56;;;;;;;;;;;;;;;3.26;100.00;100200.50;2089576;28;19917;-71
2022/11/24 03:31:01;;;;;;;;;;;;;;;3.25;100.00;100193.47;2089020;28;19921;-71
2022/11/24 03:32:07;;;;;;;;;;;;;;;3.25;100.00;100196.13;2088910;28;19921;-72
2022/11/24 03:33:09;;;;;;;;;;;;;;;3.28;100.00;100197.88;2088797;28;19921;-71
2022/11/24 03:34:13;;;;;;;;;;;;;;;3.30;100.00;100190.78;2088297;28;19921;-71
2022/11/24 03:35:14;;;;;;;;;;;;;;;3.27;100.00;100198.75;2088203;28;20729;-71
2022/11/24 03:36:17;;;;;;;;;;;;;;;3.37;100.00;100203.97;2089136;28;19921;-70
2022/11/24 03:37:19;;;;;;;;;;;;;;;3.36;100.00;100207.53;2088305;28;19925;-71
2022/11/24 03:38:20;;;;;;;;;;;;;;;3.32;100.00;100191.66;2088769;28;20864;-71
2022/11/24 03:39:22;;;;;;;;;;;;;;;3.35;100.00;100195.16;2088783;28;19917;-71
2022/11/24 03:40:23;;;;;;;;;;;;;;;3.31;100.00;100198.72;2088961;28;19952;-70
2022/11/24 03:41:25;;;;;;;;;;;;;;;3.30;100.00;100211.97;2088752;28;19928;-72
2022/11/24 03:42:27;;;;;;;;;;;;;;;3.26;100.00;100205.81;2088986;28;19921;-71
2022/11/24 03:43:29;;;;;;;;;;;;;;;3.22;100.00;100210.22;2088751;28;20887;-71
2022/11/24 03:44:30;;;;;;;;;;;;;;;3.25;100.00;100212.00;2088793;28;19925;-71
2022/11/24 03:45:32;;;;;;;;;;;;;;;3.24;100.00;100208.44;2088776;28;19914;-71
2022/11/24 03:46:50;;;;;;;;;;;;;;;3.31;100.00;100209.31;2088829;28;19932;-71
2022/11/24 03:47:52;;;;;;;;;;;;;;;3.33;100.00;100212.81;2088726;28;19921;-71
2022/11/24 03:48:54;;;;;;;;;;;;;;;3.33;100.00;100218.13;2088784;28;19917;-71
2022/11/24 03:49:55;;;;;;;;;;;;;;;3.31;100.00;100225.19;2088581;28;19932;-70
2022/11/24 03:50:59;;;;;;;;;;;;;;;3.34;100.00;100225.19;2088790;28;20817;-70
2022/11/24 03:52:01;;;;;;;;;;;;;;;3.34;100.00;100222.53;2088632;28;20782;-71
2022/11/24 03:53:08;;;;;;;;;;;;;;;3.33;100.00;100223.41;2089135;28;19929;-70
2022/11/24 03:54:10;;;;;;;;;;;;;;;3.34;100.00;100225.19;2087998;28;21015;-71
2022/11/24 03:55:12;;;;;;;;;;;;;;;3.44;100.00;100232.16;2088834;28;19921;-71
2022/11/24 03:56:13;;;;;;;;;;;;;;;3.42;100.00;100223.34;2087392;28;19930;-70
2022/11/24 03:57:15;;;;;;;;;;;;;;;3.40;100.00;100233.06;2089507;28;20075;-69
2022/11/24 03:58:17;;;;;;;;;;;;;;;3.43;100.00;100232.19;2089783;28;19921;-70
2022/11/24 03:59:19;;;;;;;;;;;;;;;3.38;100.00;100234.84;2090052;28;19929;-70
2022/11/24 04:00:21;;;;;;;;;;;;;;;3.37;100.00;100235.72;2089387;28;19998;-72
2022/11/24 04:01:22;;;;;;;;;;;;;;;3.38;100.00;100231.34;2090391;28;19921;-70
2022/11/24 04:02:24;;;;;;;;;;;;;;;3.34;100.00;100233.13;2089731;28;19921;-71
2022/11/24 04:03:26;;;;;;;;;;;;;;;3.38;100.00;100236.63;2090370;28;20067;-72
2022/11/24 04:04:27;;;;;;;;;;;;;;;3.35;100.00;100231.34;2090068;28;20702;-70
2022/11/24 04:05:29;;;;;;;;;;;;;;;3.31;100.00;100237.53;2090016;28;20872;-71
2022/11/24 04:06:31;;;;;;;;;;;;;;;3.31;100.00;100230.47;2089514;28;20915;-72
2022/11/24 04:07:34;;;;;;;;;;;;;;;3.33;100.00;100231.34;2090293;28;20030;-71
2022/11/24 04:08:38;;;;;;;;;;;;;;;3.31;100.00;100234.91;2089942;28;19924;-71
2022/11/24 04:09:39;;;;;;;;;;;;;;;3.32;100.00;100234.91;2090086;28;20802;-72
2022/11/24 04:10:41;;;;;;;;;;;;;;;3.37;100.00;100235.72;2090216;28;19986;-70
2022/11/24 04:13:09;;;;;;;;;;;;;;;3.51;100.00;100248.91;2089947;28;19925;-71
2022/11/24 04:14:11;;;;;;;;;;;;;;;3.49;100.00;100250.69;2089818;28;21006;-71
2022/11/24 04:15:18;;;;;;;;;;;;;;;3.49;100.00;100247.16;2089735;28;20059;-71
2022/11/24 04:16:19;;;;;;;;;;;;;;;3.46;100.00;100244.50;2089740;28;31513;-71
2022/11/24 04:17:21;;;;;;;;;;;;;;;3.48;100.00;100254.19;2089529;28;35513;-71
2022/11/24 04:18:23;;;;;;;;;;;;;;;3.52;100.00;100249.78;2089236;28;29902;-71
2022/11/24 04:19:24;;;;;;;;;;;;;;;3.54;100.00;100250.66;2088372;28;37682;-71
2022/11/24 04:20:26;;;;;;;;;;;;;;;3.56;100.00;100246.25;2089327;28;20282;-71
2022/11/24 04:21:30;;;;;;;;;;;;;;;3.63;100.00;100246.19;2089440;28;30792;-71
2022/11/24 04:22:31;;;;;;;;;;;;;;;3.62;100.00;100246.19;2088739;28;32941;-71
2022/11/24 04:23:33;;;;;;;;;;;;;;;3.61;100.00;100250.63;2088677;28;36424;-71
2022/11/24 04:24:34;;;;;;;;;;;;;;;3.62;100.00;100248.84;2089226;28;35187;-70
2022/11/24 04:25:41;;;;;;;;;;;;;;;3.62;100.00;100252.38;2089932;28;20084;-70
2022/11/24 04:26:44;;;;;;;;;;;;;;;3.60;100.00;100259.44;2089572;28;20047;-70
2022/11/24 04:27:51;;;;;;;;;;;;;;;3.61;100.00;100258.56;2088966;28;37666;-69
2022/11/24 04:28:52;;;;;;;;;;;;;;;3.65;100.00;100256.78;2089592;28;30350;-70
2022/11/24 04:29:54;;;;;;;;;;;;;;;3.63;100.00;100253.25;2089029;28;39525;-71
2022/11/24 04:31:01;;;;;;;;;;;;;;;3.63;100.00;100258.56;2089198;28;34119;-72
2022/11/24 04:32:03;;;;;;;;;;;;;;;3.65;100.00;100259.41;2090156;28;21042;-70
2022/11/24 04:33:04;;;;;;;;;;;;;;;3.69;100.00;100265.56;2089271;28;31161;-69
2022/11/24 04:34:06;;;;;;;;;;;;;;;3.69;100.00;100257.63;2089317;28;32036;-70
2022/11/24 04:35:07;;;;;;;;;;;;;;;3.70;100.00;100256.75;2089744;28;24749;-70
2022/11/24 04:36:09;;;;;;;;;;;;;;;3.68;100.00;100262.06;2089133;28;33031;-72
2022/11/24 04:37:11;;;;;;;;;;;;;;;3.69;100.00;100257.63;2090298;28;20762;-71
2022/11/24 04:38:17;;;;;;;;;;;;;;;3.70;100.00;100257.63;2089223;28;19921;-70
2022/11/24 04:39:39;;;;;;;;;;;;;;;3.69;100.00;100254.97;2090054;28;19921;-70
2022/11/24 04:40:41;;;;;;;;;;;;;;;3.72;100.00;100254.97;2088682;28;31364;-70
2022/11/24 04:41:42;;;;;;;;;;;;;;;3.78;100.00;100262.88;2089147;28;29782;-71
2022/11/24 04:42:52;;;;;;;;;;;;;;;3.76;100.00;100268.16;2089696;28;19972;-70
2022/11/24 04:43:53;;;;;;;;;;;;;;;3.74;100.00;100266.44;2088466;28;39468;-70
2022/11/24 04:44:55;;;;;;;;;;;;;;;3.76;100.00;100270.81;2089375;28;29546;-70
2022/11/24 04:46:00;;;;;;;;;;;;;;;3.75;100.00;100269.06;2088993;28;37331;-70
2022/11/24 04:47:02;;;;;;;;;;;;;;;3.71;100.00;100269.09;2089354;28;38047;-72
2022/11/24 04:48:04;;;;;;;;;;;;;;;3.69;100.00;100268.22;2089237;28;30345;-69
2022/11/24 04:49:05;;;;;;;;;;;;;;;3.67;100.00;100273.53;2085170;28;34639;-70
2022/11/24 04:50:09;;;;;;;;;;;;;;;3.66;100.00;100266.47;2089794;28;20123;-70
2022/11/24 04:51:13;;;;;;;;;;;;;;;3.66;100.00;100279.72;2089199;28;39795;-70
2022/11/24 04:52:16;;;;;;;;;;;;;;;3.67;100.00;100285.88;2088986;28;34631;-70
2022/11/24 04:53:17;;;;;;;;;;;;;;;3.65;100.00;100280.59;2089493;28;30955;-72
2022/11/24 04:54:19;;;;;;;;;;;;;;;3.68;100.00;100283.22;2089298;28;31568;-70
2022/11/24 04:55:21;;;;;;;;;;;;;;;3.76;100.00;100288.47;2088728;28;19994;-70
2022/11/24 04:56:22;;;;;;;;;;;;;;;3.80;100.00;100287.56;2088956;28;39400;-71
2022/11/24 04:57:25;;;;;;;;;;;;;;;3.77;100.00;100288.47;2089514;28;30185;-71
2022/11/24 04:58:27;;;;;;;;;;;;;;;3.77;100.00;100283.19;2089375;28;29952;-70
2022/11/24 04:59:28;;;;;;;;;;;;;;;3.77;100.00;100284.94;2088851;28;36507;-70
2022/11/24 05:00:30;;;;;;;;;;;;;;;3.79;100.00;100294.63;2089668;28;37231;-71
2022/11/24 05:01:32;;;;;;;;;;;;;;;3.79;100.00;100291.13;2089433;28;34152;-71
2022/11/24 05:02:33;;;;;;;;;;;;;;;3.80;100.00;100293.75;2089001;28;37913;-72
2022/11/24 05:03:36;;;;;;;;;;;;;;;3.81;100.00;100290.22;2089250;28;36637;-72
2022/11/24 05:04:40;;;;;;;;;;;;;;;3.83;100.00;100292.84;2089140;28;31967;-71
2022/11/24 05:05:41;;;;;;;;;;;;;;;3.83;100.00;100299.00;2089465;28;30460;-71
2022/11/24 05:06:45;;;;;;;;;;;;;;;3.90;100.00;100294.56;2089058;28;35405;-69
2022/11/24 05:07:47;;;;;;;;;;;;;;;3.91;100.00;100295.44;2089263;28;31167;-71
2022/11/24 05:08:50;;;;;;;;;;;;;;;3.92;100.00;100291.91;2088359;28;35468;-71
2022/11/24 05:11:13;;;;;;;;;;;;;;;3.97;100.00;100296.28;2089003;28;33747;-70
2022/11/24 05:12:14;;;;;;;;;;;;;;;3.99;100.00;100302.44;2088858;28;35941;-72
2022/11/24 05:13:16;;;;;;;;;;;;;;;3.99;100.00;100299.81;2089089;28;26554;-72
2022/11/24 05:14:17;;;;;;;;;;;;;;;4.00;100.00;100305.97;2089747;28;20041;-72
2022/11/24 05:15:19;;;;;;;;;;;;;;;4.00;100.00;100305.97;2088440;28;34011;-72
2022/11/24 05:16:21;;;;;;;;;;;;;;;4.01;100.00;100299.81;2088886;28;37776;-71
2022/11/24 05:17:22;;;;;;;;;;;;;;;4.00;100.00;100308.63;2089155;28;32363;-72
2022/11/24 05:18:24;;;;;;;;;;;;;;;3.99;100.00;100309.53;2088897;28;35375;-72
2022/11/24 05:19:26;;;;;;;;;;;;;;;4.00;100.00;100311.28;2089346;28;27329;-71
2022/11/24 05:20:33;;;;;;;;;;;;;;;4.04;100.00;100310.38;2089411;28;30894;-70
2022/11/24 05:21:36;;;;;;;;;;;;;;;4.04;100.00;100309.47;2089354;28;23701;-71
2022/11/24 05:22:38;;;;;;;;;;;;;;;4.03;100.00;100320.97;2089244;28;39510;-72
2022/11/24 05:23:39;;;;;;;;;;;;;;;4.04;100.00;100317.44;2088833;28;37888;-72
2022/11/24 05:24:43;;;;;;;;;;;;;;;4.04;100.00;100318.34;2088845;28;36726;-72
2022/11/24 05:25:45;;;;;;;;;;;;;;;4.04;100.00;100313.03;2088852;28;37348;-71
2022/11/24 05:26:48;;;;;;;;;;;;;;;4.05;100.00;100321.84;2089667;28;20093;-71